Time;durP1;ratioP1;P1;durP2;ratioP2;P2;SDS_P1;SDS_P2;PMS_P1;PMS_P2;Temp;Humidity;BMP_temperature;BMP_pressure;BME280_temperature;BME280_humidity;BME280_pressure;Samples;Min_cycle;Max_cycle;Signal;HPM_P1;HPM_P2
2022/07/29 00:00:36;;;;;;;9.63;6.37;;;20.00;99.90;;;;;;4933671;29;20173;-73
2022/07/29 00:03:02;;;;;;;7.73;5.83;;;20.00;99.90;;;;;;4936443;29;20193;-75
2022/07/29 00:05:28;;;;;;;9.80;6.80;;;19.90;99.90;;;;;;4936698;29;20313;-74
2022/07/29 00:07:54;;;;;;;9.53;5.97;;;20.00;99.90;;;;;;4937112;29;20495;-74
2022/07/29 00:10:20;;;;;;;6.93;6.43;;;19.90;99.90;;;;;;4936862;29;20199;-75
2022/07/29 00:12:46;;;;;;;8.87;6.50;;;19.90;99.90;;;;;;4936226;29;20958;-72
2022/07/29 00:15:11;;;;;;;6.67;5.63;;;19.90;99.90;;;;;;4936194;29;20448;-73
2022/07/29 00:17:37;;;;;;;6.53;5.73;;;19.90;99.90;;;;;;4937110;29;20173;-74
2022/07/29 00:20:03;;;;;;;5.00;4.70;;;19.90;99.90;;;;;;4936688;29;20252;-74
2022/07/29 00:22:29;;;;;;;6.37;5.93;;;19.90;99.90;;;;;;4935879;29;20242;-74
2022/07/29 00:24:54;;;;;;;8.40;5.70;;;19.80;99.90;;;;;;4940474;29;20546;-74
2022/07/29 00:27:20;;;;;;;7.27;6.60;;;19.80;99.90;;;;;;4940836;29;20192;-73
2022/07/29 00:29:45;;;;;;;6.40;5.90;;;19.70;99.90;;;;;;4936294;29;20185;-73
2022/07/29 00:32:11;;;;;;;7.00;6.30;;;19.70;99.90;;;;;;4934259;29;20630;-75
2022/07/29 00:37:21;;;;;;;7.33;6.60;;;19.70;99.90;;;;;;4936375;29;20244;-73
2022/07/29 00:39:46;;;;;;;6.47;5.77;;;19.60;99.90;;;;;;4936847;29;20926;-74
2022/07/29 00:42:12;;;;;;;9.43;6.30;;;19.60;99.90;;;;;;4936377;29;20568;-75
2022/07/29 00:44:38;;;;;;;8.80;5.27;;;19.60;99.90;;;;;;4938152;29;20193;-74
2022/07/29 00:47:04;;;;;;;6.67;6.07;;;19.50;99.90;;;;;;4937838;29;20192;-74
2022/07/29 00:49:30;;;;;;;5.80;5.20;;;19.50;99.90;;;;;;4937797;29;20429;-74
2022/07/29 00:51:55;;;;;;;5.57;5.17;;;19.50;99.90;;;;;;4935804;29;20625;-73
2022/07/29 00:54:21;;;;;;;7.53;5.80;;;19.50;99.90;;;;;;4936293;29;20225;-74
2022/07/29 00:56:46;;;;;;;7.03;6.27;;;19.50;99.90;;;;;;4936364;29;20178;-73
2022/07/29 00:59:12;;;;;;;6.90;6.30;;;19.50;99.90;;;;;;4935542;29;20192;-72
2022/07/29 02:32:16;;;;;;;6.30;4.70;;;18.80;99.90;;;;;;5276987;23;20500;-74
2022/07/29 02:34:44;;;;;;;5.93;5.33;;;18.80;99.90;;;;;;4929602;29;20474;-76
2022/07/29 02:37:11;;;;;;;4.73;4.33;;;18.80;99.90;;;;;;4930437;29;20417;-75
2022/07/29 02:39:38;;;;;;;4.33;4.10;;;18.80;99.90;;;;;;4935493;29;20424;-75
2022/07/29 02:42:09;;;;;;;5.07;4.60;;;18.80;99.90;;;;;;4934327;29;21016;-75
2022/07/29 02:44:36;;;;;;;4.60;4.23;;;18.80;99.90;;;;;;4934880;29;20424;-76
2022/07/29 02:47:11;;;;;;;5.63;4.10;;;18.80;99.90;;;;;;4933987;29;20409;-75
2022/07/29 02:49:40;;;;;;;6.77;4.40;;;18.70;99.90;;;;;;4933927;29;20518;-75
2022/07/29 02:52:18;;;;;;;4.33;4.03;;;18.70;99.90;;;;;;4933452;29;20437;-74
2022/07/29 02:55:05;;;;;;;4.70;4.30;;;18.60;99.90;;;;;;4933932;29;20463;-76
2022/07/29 02:57:36;;;;;;;5.27;4.83;;;18.60;99.90;;;;;;4933795;29;20417;-75
2022/07/29 03:00:06;;;;;;;5.00;4.37;;;18.60;99.90;;;;;;4933546;29;20413;-75
2022/07/29 03:02:36;;;;;;;4.30;4.00;;;18.60;99.90;;;;;;4932400;29;20457;-75
2022/07/29 03:05:03;;;;;;;4.10;3.90;;;18.70;99.90;;;;;;4934095;29;20413;-74
2022/07/29 03:07:29;;;;;;;4.77;4.27;;;18.70;99.90;;;;;;4933497;29;20740;-75
2022/07/29 03:09:56;;;;;;;4.53;4.23;;;18.70;99.90;;;;;;4933625;29;20417;-75
2022/07/29 03:12:22;;;;;;;5.60;5.17;;;18.60;99.90;;;;;;4933051;29;20451;-75
2022/07/29 03:14:48;;;;;;;4.70;4.30;;;18.60;99.90;;;;;;4933427;29;20476;-75
2022/07/29 03:17:15;;;;;;;4.60;4.20;;;18.60;99.90;;;;;;4933839;29;20421;-75
2022/07/29 03:19:40;;;;;;;5.23;4.93;;;18.60;99.90;;;;;;4933618;29;20421;-75
2022/07/29 03:22:06;;;;;;;4.57;4.27;;;18.60;99.90;;;;;;4932400;29;20576;-74
2022/07/29 03:24:34;;;;;;;4.43;4.13;;;18.60;99.90;;;;;;4933320;29;20181;-75
2022/07/29 03:27:00;;;;;;;4.33;4.03;;;18.50;99.90;;;;;;4933501;29;20237;-75
2022/07/29 03:29:27;;;;;;;5.30;4.90;;;18.50;99.90;;;;;;4933228;29;20405;-74
2022/07/29 03:31:53;;;;;;;4.97;4.57;;;18.40;99.90;;;;;;4932396;29;20530;-75
2022/07/29 03:34:19;;;;;;;5.37;4.90;;;18.40;99.90;;;;;;4933028;29;20424;-75
2022/07/29 03:36:44;;;;;;;4.97;4.57;;;18.40;99.90;;;;;;4932593;29;20418;-72
2022/07/29 03:39:12;;;;;;;4.90;4.53;;;18.40;99.90;;;;;;4933471;29;20189;-75
2022/07/29 03:41:41;;;;;;;5.50;4.40;;;18.50;99.90;;;;;;4932341;29;20217;-75
2022/07/29 03:44:08;;;;;;;5.47;4.97;;;18.40;99.90;;;;;;4932945;29;20501;-75
2022/07/29 03:46:36;;;;;;;4.80;4.43;;;18.50;99.90;;;;;;4933051;29;20440;-75
2022/07/29 03:49:04;;;;;;;5.23;4.83;;;18.50;99.90;;;;;;4933556;29;20424;-75
2022/07/29 03:51:30;;;;;;;5.90;4.33;;;18.50;99.90;;;;;;4932387;29;20444;-75
2022/07/29 03:53:57;;;;;;;4.80;4.40;;;18.50;99.90;;;;;;4933200;29;20492;-75
2022/07/29 03:56:24;;;;;;;4.63;4.23;;;18.50;99.90;;;;;;4933047;29;20440;-75
2022/07/29 03:58:53;;;;;;;4.33;3.87;;;18.50;99.90;;;;;;4933310;29;20460;-74
2022/07/29 04:01:19;;;;;;;6.93;4.10;;;18.40;99.90;;;;;;4932404;29;20504;-74
2022/07/29 04:03:45;;;;;;;3.80;3.60;;;18.40;99.90;;;;;;4933137;29;20414;-70
2022/07/29 04:06:12;;;;;;;5.47;4.93;;;18.40;99.90;;;;;;4917983;29;20422;-73
2022/07/29 04:08:38;;;;;;;4.80;4.40;;;18.30;99.90;;;;;;4914051;29;20422;-73
2022/07/29 04:11:04;;;;;;;4.73;4.33;;;18.30;99.90;;;;;;4913546;29;20532;-72
2022/07/29 04:13:30;;;;;;;4.53;4.20;;;18.40;99.90;;;;;;4913937;29;20422;-71
2022/07/29 04:15:56;;;;;;;5.70;5.07;;;18.40;99.90;;;;;;4918470;29;21025;-73
2022/07/29 04:18:22;;;;;;;4.13;3.90;;;18.40;99.90;;;;;;4930098;29;20464;-73
2022/07/29 04:20:47;;;;;;;5.67;4.87;;;18.40;99.90;;;;;;4930954;29;20194;-73
2022/07/29 04:23:13;;;;;;;5.70;5.10;;;18.40;99.90;;;;;;4932691;29;20437;-74
2022/07/29 04:25:39;;;;;;;5.70;5.03;;;18.50;99.90;;;;;;4932643;29;20285;-73
2022/07/29 04:28:06;;;;;;;4.90;4.30;;;18.50;99.90;;;;;;4932676;29;20177;-72
2022/07/29 04:30:33;;;;;;;3.93;3.73;;;18.50;99.90;;;;;;4931594;29;20783;-71
2022/07/29 04:33:04;;;;;;;6.03;4.47;;;18.60;99.90;;;;;;4933816;29;20421;-73
2022/07/29 04:35:31;;;;;;;4.93;4.53;;;18.60;99.90;;;;;;4934828;29;20421;-73
2022/07/29 04:37:56;;;;;;;7.20;5.13;;;18.60;99.90;;;;;;4932807;29;20473;-73
2022/07/29 04:40:22;;;;;;;5.40;4.63;;;18.60;99.90;;;;;;4932248;29;20460;-72
2022/07/29 04:42:47;;;;;;;4.87;4.47;;;18.70;99.90;;;;;;4930828;29;20312;-72
2022/07/29 04:45:13;;;;;;;4.90;4.50;;;18.70;99.90;;;;;;4932909;29;20181;-73
2022/07/29 04:47:39;;;;;;;4.20;3.90;;;18.80;99.90;;;;;;4934834;29;20766;-73
2022/07/29 04:50:06;;;;;;;4.93;4.53;;;18.90;99.90;;;;;;4936026;29;20177;-71
2022/07/29 04:52:32;;;;;;;7.80;4.10;;;18.90;99.90;;;;;;4935406;29;20189;-73
2022/07/29 04:54:57;;;;;;;3.77;3.47;;;18.90;99.90;;;;;;4936022;29;21052;-73
2022/07/29 04:57:23;;;;;;;4.33;4.03;;;18.90;99.90;;;;;;4935869;29;20262;-72
2022/07/29 04:59:48;;;;;;;4.57;4.27;;;19.00;99.90;;;;;;4935294;29;20197;-71
2022/07/29 05:02:14;;;;;;;4.33;3.93;;;19.00;99.90;;;;;;4935220;29;20701;-71
2022/07/29 05:04:39;;;;;;;3.73;3.40;;;19.00;99.90;;;;;;4935730;29;20188;-73
2022/07/29 05:07:05;;;;;;;4.33;3.93;;;19.10;99.90;;;;;;4933792;29;20186;-69
2022/07/29 05:09:32;;;;;;;4.67;4.27;;;19.20;99.90;;;;;;4929964;29;20230;-71
2022/07/29 05:11:58;;;;;;;3.13;2.97;;;19.30;99.90;;;;;;4928004;29;20227;-74
2022/07/29 05:14:23;;;;;;;3.97;3.67;;;19.30;99.90;;;;;;4935790;29;20520;-74
2022/07/29 05:16:50;;;;;;;4.10;3.73;;;19.40;99.90;;;;;;4935516;29;20772;-74
2022/07/29 05:19:16;;;;;;;5.10;4.30;;;19.60;99.90;;;;;;4935337;29;20192;-74
2022/07/29 05:21:42;;;;;;;3.10;2.90;;;19.80;99.90;;;;;;4934333;29;20472;-74
2022/07/29 05:24:07;;;;;;;3.57;3.17;;;20.00;99.90;;;;;;4929064;29;20738;-73
2022/07/29 05:26:33;;;;;;;3.77;3.47;;;20.30;99.90;;;;;;4928660;29;20181;-74
2022/07/29 05:28:59;;;;;;;2.90;2.70;;;20.60;99.90;;;;;;4934915;29;20233;-73
2022/07/29 05:31:24;;;;;;;2.63;2.53;;;21.00;99.90;;;;;;4933402;29;20284;-73
2022/07/29 05:33:50;;;;;;;3.07;2.80;;;21.20;99.90;;;;;;4934736;29;20217;-74
2022/07/29 05:36:15;;;;;;;2.83;2.73;;;21.30;99.90;;;;;;4934173;29;20177;-76
2022/07/29 05:38:41;;;;;;;2.87;2.67;;;21.40;99.90;;;;;;4934217;29;20181;-74
2022/07/29 05:41:06;;;;;;;3.93;2.73;;;21.60;99.90;;;;;;4927449;29;20220;-75
2022/07/29 05:43:32;;;;;;;3.37;3.07;;;21.80;99.90;;;;;;4934613;29;20174;-75
2022/07/29 05:45:58;;;;;;;2.80;2.70;;;22.10;99.90;;;;;;4935241;29;20192;-75
2022/07/29 05:48:24;;;;;;;3.63;3.20;;;22.60;99.90;;;;;;4927602;29;20225;-75
2022/07/29 05:50:49;;;;;;;2.63;2.43;;;22.90;99.90;;;;;;4914148;29;20224;-75
2022/07/29 05:53:15;;;;;;;3.43;3.17;;;23.20;99.90;;;;;;4915640;29;20414;-75
2022/07/29 05:55:41;;;;;;;2.47;2.10;;;23.30;99.90;;;;;;4915972;29;20182;-75
2022/07/29 05:58:06;;;;;;;2.90;2.70;;;23.40;99.90;;;;;;4915523;29;20427;-74
2022/07/29 06:00:32;;;;;;;2.60;2.50;;;23.50;99.90;;;;;;4915278;29;20186;-72
2022/07/29 06:02:57;;;;;;;2.50;2.40;;;23.50;99.90;;;;;;4915477;29;20288;-75
2022/07/29 06:05:23;;;;;;;3.00;2.70;;;23.90;99.90;;;;;;4916112;29;20206;-74
2022/07/29 06:07:48;;;;;;;3.80;2.77;;;24.30;99.90;;;;;;4915774;29;20665;-73
2022/07/29 06:10:14;;;;;;;3.37;2.20;;;24.50;99.90;;;;;;4916011;29;20201;-75
2022/07/29 06:12:40;;;;;;;2.47;2.37;;;24.80;99.90;;;;;;4914914;29;20289;-74
2022/07/29 06:15:05;;;;;;;3.13;2.83;;;25.00;99.90;;;;;;4915474;29;20178;-71
2022/07/29 06:17:31;;;;;;;4.13;3.10;;;25.20;99.90;;;;;;4915070;29;20182;-74
2022/07/29 06:19:57;;;;;;;3.60;2.87;;;25.40;99.90;;;;;;4915745;29;20493;-75
2022/07/29 06:22:22;;;;;;;3.30;2.73;;;25.20;99.90;;;;;;4914972;29;20213;-75
2022/07/29 06:24:48;;;;;;;2.90;2.70;;;25.40;99.90;;;;;;4915233;29;20174;-74
2022/07/29 06:27:13;;;;;;;5.83;3.27;;;25.40;99.90;;;;;;4915115;29;20177;-74
2022/07/29 06:29:39;;;;;;;4.17;3.20;;;25.70;99.90;;;;;;4915548;29;20246;-75
2022/07/29 06:32:05;;;;;;;2.50;2.40;;;26.00;99.90;;;;;;4915020;29;20225;-72
2022/07/29 06:34:30;;;;;;;7.73;3.20;;;26.40;99.90;;;;;;4915691;29;20178;-74
2022/07/29 06:36:56;;;;;;;2.90;2.67;;;26.40;99.90;;;;;;4917354;29;20182;-74
2022/07/29 06:39:21;;;;;;;3.50;3.20;;;26.40;99.90;;;;;;4920860;29;20213;-75
2022/07/29 06:41:50;;;;;;;4.10;2.93;;;26.30;99.90;;;;;;4914113;29;20304;-73
2022/07/29 06:44:17;;;;;;;3.10;2.80;;;26.30;99.90;;;;;;4915611;29;20185;-74
2022/07/29 06:46:43;;;;;;;3.27;2.93;;;26.40;99.90;;;;;;4915397;29;20414;-75
2022/07/29 06:49:09;;;;;;;3.87;3.57;;;26.40;99.90;;;;;;4914660;29;20899;-75
2022/07/29 06:51:35;;;;;;;5.13;3.30;;;26.40;99.90;;;;;;4913027;29;20967;-75
2022/07/29 06:54:01;;;;;;;3.90;3.60;;;26.40;99.90;;;;;;4915054;29;20418;-74
2022/07/29 06:56:27;;;;;;;3.73;3.03;;;26.50;99.90;;;;;;4914081;29;20430;-73
2022/07/29 06:58:52;;;;;;;3.70;3.40;;;26.50;99.90;;;;;;4915080;29;20591;-75
2022/07/29 07:01:19;;;;;;;5.70;3.50;;;26.50;99.90;;;;;;4914303;29;20258;-75
2022/07/29 07:03:45;;;;;;;6.07;2.70;;;26.50;99.90;;;;;;4914635;29;20174;-72
2022/07/29 07:06:10;;;;;;;3.30;3.10;;;26.50;99.90;;;;;;4914940;29;20824;-74
2022/07/29 07:08:36;;;;;;;7.27;3.70;;;26.90;99.90;;;;;;4914311;29;20209;-74
2022/07/29 07:11:02;;;;;;;3.53;3.33;;;27.30;99.90;;;;;;4913277;29;20206;-74
2022/07/29 07:13:31;;;;;;;6.77;4.20;;;27.40;99.90;;;;;;4914759;29;20178;-74
2022/07/29 07:15:56;;;;;;;4.13;3.33;;;27.70;99.90;;;;;;4914769;29;20181;-75
2022/07/29 07:18:22;;;;;;;6.40;3.07;;;27.80;99.90;;;;;;4914526;29;20982;-74
2022/07/29 07:20:47;;;;;;;3.67;3.37;;;27.40;99.90;;;;;;4913477;29;20178;-74
2022/07/29 07:23:13;;;;;;;4.37;3.93;;;27.10;99.90;;;;;;4914813;29;20178;-75
2022/07/29 07:25:38;;;;;;;3.53;3.23;;;27.10;99.90;;;;;;4914417;29;20178;-75
2022/07/29 07:28:04;;;;;;;3.87;3.50;;;27.30;99.90;;;;;;4914593;29;20181;-75
2022/07/29 07:30:30;;;;;;;3.07;2.87;;;27.60;99.90;;;;;;4913679;29;20174;-74
2022/07/29 07:32:56;;;;;;;3.70;3.40;;;27.70;99.90;;;;;;4914266;29;20225;-74
2022/07/29 07:35:21;;;;;;;3.93;3.63;;;27.90;99.90;;;;;;4914404;29;20430;-75
2022/07/29 07:37:47;;;;;;;3.47;3.10;;;28.00;99.90;;;;;;4914175;29;20647;-73
2022/07/29 07:40:13;;;;;;;7.70;3.60;;;27.90;99.90;;;;;;4913845;29;20623;-74
2022/07/29 07:42:40;;;;;;;4.33;4.03;;;27.60;99.90;;;;;;4913430;29;20210;-74
2022/07/29 07:45:08;;;;;;;3.80;3.50;;;27.70;99.90;;;;;;4914168;29;20812;-74
2022/07/29 07:47:35;;;;;;;8.60;3.93;;;28.10;99.90;;;;;;4914133;29;20414;-76
2022/07/29 07:50:00;;;;;;;3.77;3.47;;;28.40;99.90;;;;;;4914594;29;20422;-75
2022/07/29 07:52:26;;;;;;;4.03;3.63;;;28.90;99.90;;;;;;4912880;29;20814;-72
2022/07/29 07:54:52;;;;;;;3.57;3.37;;;29.40;99.90;;;;;;4914272;29;20218;-74
2022/07/29 07:57:18;;;;;;;7.10;3.80;;;29.70;99.90;;;;;;4914398;29;20555;-74
2022/07/29 07:59:43;;;;;;;3.63;3.43;;;29.60;99.90;;;;;;4914123;29;20425;-75
2022/07/29 08:02:09;;;;;;;5.87;4.33;;;29.20;99.90;;;;;;4913170;29;20734;-75
2022/07/29 08:04:35;;;;;;;5.00;3.80;;;28.90;99.90;;;;;;4914236;29;20650;-73
2022/07/29 08:07:01;;;;;;;5.70;3.10;;;28.80;99.90;;;;;;4914039;29;20257;-74
2022/07/29 08:09:28;;;;;;;5.10;3.47;;;29.20;99.90;;;;;;4914029;29;20268;-73
2022/07/29 08:11:54;;;;;;;3.63;3.43;;;29.60;99.90;;;;;;4913503;29;20430;-75
2022/07/29 08:14:20;;;;;;;5.83;3.77;;;29.90;99.90;;;;;;4914457;29;20418;-75
2022/07/29 08:16:46;;;;;;;4.30;4.00;;;30.50;99.90;;;;;;4913392;29;20421;-73
2022/07/29 08:19:11;;;;;;;4.10;3.47;;;30.60;99.90;;;;;;4914297;29;20647;-74
2022/07/29 08:21:37;;;;;;;6.37;3.47;;;30.80;99.90;;;;;;4914291;29;20221;-74
2022/07/29 08:26:48;;;;;;;6.37;4.70;;;31.20;99.90;;;;;;4917334;29;20438;-75
2022/07/29 08:29:13;;;;;;;3.67;3.37;;;31.10;99.90;;;;;;4917257;29;20419;-76
2022/07/29 08:31:39;;;;;;;3.80;3.50;;;30.80;99.90;;;;;;4915834;29;20273;-76
2022/07/29 08:34:05;;;;;;;4.10;3.80;;;30.90;99.90;;;;;;4917163;29;20484;-74
2022/07/29 08:36:32;;;;;;;3.80;3.50;;;31.20;99.90;;;;;;4918192;29;20296;-74
2022/07/29 08:38:58;;;;;;;5.70;3.60;;;31.30;99.90;;;;;;4919780;29;20421;-73
2022/07/29 08:41:23;;;;;;;4.80;3.63;;;31.60;99.90;;;;;;4925195;29;20838;-76
2022/07/29 08:43:50;;;;;;;6.93;4.00;;;31.80;99.90;;;;;;4918412;29;20422;-74
2022/07/29 08:46:16;;;;;;;4.37;4.07;;;31.60;99.90;;;;;;4917300;29;20210;-74
2022/07/29 08:48:42;;;;;;;4.57;4.27;;;31.90;99.90;;;;;;4916974;29;20481;-75
2022/07/29 08:51:08;;;;;;;5.23;3.63;;;31.40;99.90;;;;;;4916280;29;20532;-75
2022/07/29 08:53:34;;;;;;;3.77;3.47;;;31.50;99.90;;;;;;4917169;29;20174;-74
2022/07/29 08:56:01;;;;;;;3.77;3.47;;;31.90;99.90;;;;;;4917071;29;20182;-75
2022/07/29 08:58:32;;;;;;;10.23;3.83;;;32.30;99.90;;;;;;4917082;29;20174;-74
2022/07/29 09:01:01;;;;;;;7.47;3.83;;;32.60;99.90;;;;;;4915388;29;20524;-75
2022/07/29 09:03:31;;;;;;;3.50;3.20;;;32.90;99.90;;;;;;4916394;29;20445;-74
2022/07/29 09:05:58;;;;;;;3.87;3.57;;;32.80;99.90;;;;;;4917055;29;20945;-75
2022/07/29 09:08:24;;;;;;;4.60;4.30;;;32.90;99.90;;;;;;4916783;29;20418;-74
2022/07/29 09:10:51;;;;;;;4.27;3.60;;;33.20;99.90;;;;;;4916237;29;20485;-74
2022/07/29 09:13:16;;;;;;;7.80;3.63;;;33.40;99.90;;;;;;4917172;29;20262;-74
2022/07/29 09:15:42;;;;;;;4.20;3.80;;;33.10;99.90;;;;;;4916153;29;20508;-76
2022/07/29 09:18:07;;;;;;;4.00;3.80;;;33.40;99.90;;;;;;4916647;29;20236;-74
2022/07/29 09:23:17;;;;;;;6.37;3.97;;;33.40;99.90;;;;;;4917014;29;20575;-75
2022/07/29 09:25:43;;;;;;;4.57;3.60;;;33.30;99.90;;;;;;4916563;29;20422;-76
2022/07/29 09:28:11;;;;;;;5.80;4.20;;;33.10;99.90;;;;;;4916603;29;20182;-75
2022/07/29 09:30:56;;;;;;;4.40;4.00;;;33.50;99.90;;;;;;4915469;29;20184;-73
2022/07/29 09:33:23;;;;;;;4.90;3.40;;;33.60;99.90;;;;;;4915756;29;20426;-74
2022/07/29 09:36:02;;;;;;;4.33;3.30;;;33.70;99.90;;;;;;4915171;29;20493;-75
2022/07/29 09:38:27;;;;;;;3.90;3.50;;;33.60;99.90;;;;;;4916222;29;20426;-75
2022/07/29 09:40:58;;;;;;;5.10;4.20;;;33.70;99.90;;;;;;4915375;29;20497;-74
2022/07/29 09:43:24;;;;;;;4.50;4.20;;;33.70;99.90;;;;;;4914904;29;20550;-74
2022/07/29 09:45:49;;;;;;;5.33;4.20;;;33.60;99.90;;;;;;4916252;29;20505;-75
2022/07/29 09:48:18;;;;;;;5.37;4.37;;;33.70;99.90;;;;;;4916269;29;20190;-74
2022/07/29 09:50:46;;;;;;;7.90;4.27;;;34.10;99.90;;;;;;4914773;29;20651;-75
2022/07/29 09:53:12;;;;;;;5.30;4.80;;;34.40;99.90;;;;;;4916202;29;20418;-76
2022/07/29 09:55:49;;;;;;;4.43;4.07;;;34.00;99.40;;;;;;4915879;29;20426;-74
2022/07/29 09:58:19;;;;;;;12.63;4.70;;;33.70;99.90;;;;;;4916334;29;20566;-75
2022/07/29 10:00:46;;;;;;;4.57;4.20;;;33.50;99.90;;;;;;4914992;29;20853;-74
2022/07/29 10:03:13;;;;;;;5.17;3.90;;;33.00;99.90;;;;;;4915504;29;20429;-76
2022/07/29 10:05:39;;;;;;;5.80;4.37;;;32.80;99.90;;;;;;4915691;29;20833;-74
2022/07/29 10:08:05;;;;;;;5.00;4.50;;;32.10;99.90;;;;;;4914571;29;20430;-73
2022/07/29 10:10:36;;;;;;;4.93;4.30;;;31.90;99.90;;;;;;4915357;29;20419;-74
2022/07/29 10:13:04;;;;;;;4.80;4.40;;;31.10;99.90;;;;;;4915892;29;20188;-74
2022/07/29 10:15:32;;;;;;;7.50;4.50;;;30.60;99.90;;;;;;4915286;29;20501;-73
2022/07/29 10:17:58;;;;;;;5.17;4.77;;;30.10;99.90;;;;;;4915842;29;20423;-75
2022/07/29 10:20:25;;;;;;;12.43;7.53;;;29.90;99.90;;;;;;4915003;29;20517;-73
2022/07/29 10:22:51;;;;;;;5.20;4.80;;;29.50;99.90;;;;;;4915130;29;20533;-74
2022/07/29 10:25:18;;;;;;;5.70;5.20;;;29.20;99.90;;;;;;4914977;29;20819;-75
2022/07/29 10:27:45;;;;;;;6.60;4.70;;;29.00;99.90;;;;;;4915282;29;20418;-75
2022/07/29 10:30:13;;;;;;;5.67;4.90;;;28.70;99.90;;;;;;4915566;29;20422;-75
2022/07/29 10:33:16;;;;;;;5.50;5.10;;;28.50;99.90;;;;;;4914578;29;20517;-74
2022/07/29 10:35:54;;;;;;;5.90;4.90;;;28.30;99.90;;;;;;4919381;29;20491;-75
2022/07/29 10:38:34;;;;;;;6.03;5.50;;;27.90;99.90;;;;;;4934839;29;20567;-75
2022/07/29 10:41:34;;;;;;;6.70;4.53;;;27.50;99.90;;;;;;4930501;29;20448;-74
2022/07/29 10:44:18;;;;;;;5.50;5.10;;;27.30;99.90;;;;;;4920333;29;20513;-74
2022/07/29 10:46:44;;;;;;;7.27;5.63;;;27.00;99.90;;;;;;4916951;29;20501;-75
2022/07/29 10:49:14;;;;;;;7.40;4.60;;;26.70;99.90;;;;;;4914809;29;20749;-73
2022/07/29 10:52:01;;;;;;;12.60;5.73;;;26.60;99.90;;;;;;4914180;29;20229;-75
2022/07/29 10:54:43;;;;;;;5.87;5.23;;;26.40;99.90;;;;;;4915024;29;20505;-74
2022/07/29 10:57:20;;;;;;;5.03;4.67;;;26.20;99.90;;;;;;4914296;29;20919;-73
2022/07/29 10:59:50;;;;;;;8.03;5.70;;;26.00;99.90;;;;;;4914805;29;20461;-75
2022/07/29 11:02:37;;;;;;;8.17;4.77;;;25.80;99.90;;;;;;4914059;29;20466;-76
2022/07/29 11:05:19;;;;;;;7.20;5.50;;;25.60;99.90;;;;;;4914787;29;20421;-75
2022/07/29 11:08:09;;;;;;;9.00;5.70;;;25.40;99.90;;;;;;4914589;29;20482;-74
2022/07/29 11:10:35;;;;;;;8.77;5.83;;;25.30;99.90;;;;;;4914180;29;20410;-75
2022/07/29 11:13:00;;;;;;;6.60;6.00;;;25.20;99.90;;;;;;4914081;29;20414;-75
2022/07/29 11:15:26;;;;;;;6.97;6.27;;;25.00;99.90;;;;;;4924562;29;20224;-74
2022/07/29 11:17:56;;;;;;;6.83;6.27;;;24.90;99.90;;;;;;4933483;29;20185;-75
2022/07/29 11:20:31;;;;;;;5.70;4.73;;;24.80;99.90;;;;;;4933943;29;20594;-74
2022/07/29 11:22:58;;;;;;;6.37;5.77;;;24.70;99.90;;;;;;4932645;29;20464;-75
2022/07/29 11:25:24;;;;;;;12.23;5.80;;;24.50;99.90;;;;;;4933219;29;20417;-75
2022/07/29 11:27:51;;;;;;;10.57;6.00;;;24.50;99.90;;;;;;4933544;29;20424;-74
2022/07/29 11:30:17;;;;;;;6.97;6.27;;;24.30;99.90;;;;;;4933355;29;20440;-73
2022/07/29 11:32:44;;;;;;;9.00;7.30;;;24.00;99.90;;;;;;4932382;29;20533;-75
2022/07/29 11:35:23;;;;;;;7.53;6.93;;;23.60;99.90;;;;;;4931484;29;20492;-75
2022/07/29 11:38:24;;;;;;;10.77;5.93;;;23.60;99.90;;;;;;4930619;29;20445;-75
2022/07/29 11:41:25;;;;;;;11.70;6.30;;;23.50;99.90;;;;;;4932000;29;20405;-75
2022/07/29 11:43:51;;;;;;;7.23;6.20;;;23.60;99.90;;;;;;4932240;29;20441;-75
2022/07/29 11:46:50;;;;;;;5.63;5.23;;;23.70;99.90;;;;;;4933034;29;20413;-75
2022/07/29 11:49:20;;;;;;;6.00;5.40;;;23.80;99.90;;;;;;4931925;29;21080;-74
2022/07/29 11:51:54;;;;;;;8.80;6.57;;;23.90;99.90;;;;;;4932413;29;20445;-74
2022/07/29 11:54:33;;;;;;;9.00;7.80;;;24.10;99.90;;;;;;4933306;29;20424;-75
2022/07/29 11:56:59;;;;;;;7.73;6.63;;;24.00;99.90;;;;;;4932375;29;20511;-74
2022/07/29 11:59:25;;;;;;;8.80;7.90;;;24.00;99.90;;;;;;4932920;29;20516;-74
2022/07/29 12:01:58;;;;;;;7.40;6.57;;;24.00;99.90;;;;;;4932186;29;20205;-77
2022/07/29 12:04:24;;;;;;;10.00;6.70;;;23.90;99.90;;;;;;4933038;29;20845;-75
2022/07/29 12:06:51;;;;;;;7.07;6.43;;;24.00;99.90;;;;;;4932833;29;20452;-75
2022/07/29 12:09:17;;;;;;;8.90;6.93;;;24.00;99.90;;;;;;4932912;29;20914;-76
2022/07/29 12:11:43;;;;;;;7.10;6.40;;;24.00;99.90;;;;;;4932139;29;20444;-76
2022/07/29 12:14:08;;;;;;;9.03;7.13;;;24.00;99.90;;;;;;4933071;29;20421;-74
2022/07/29 12:16:37;;;;;;;6.90;6.13;;;24.00;99.90;;;;;;4932591;29;20188;-76
2022/07/29 12:19:04;;;;;;;7.97;5.97;;;24.10;99.90;;;;;;4932966;29;20239;-76
2022/07/29 12:21:46;;;;;;;6.80;6.20;;;24.30;99.90;;;;;;4932021;29;20469;-76
2022/07/29 12:24:12;;;;;;;9.97;6.00;;;24.80;99.90;;;;;;4931882;29;20433;-75
2022/07/29 12:26:50;;;;;;;9.33;6.27;;;24.90;99.90;;;;;;4932691;29;20424;-75
2022/07/29 12:29:17;;;;;;;7.10;6.13;;;24.90;99.90;;;;;;4932492;29;20577;-76
2022/07/29 12:31:43;;;;;;;6.93;6.23;;;24.80;99.90;;;;;;4931858;29;20461;-76
2022/07/29 12:34:13;;;;;;;7.23;6.60;;;24.50;99.90;;;;;;4932719;29;20512;-75
2022/07/29 12:36:38;;;;;;;6.90;5.90;;;24.20;99.90;;;;;;4932658;29;20409;-76
2022/07/29 12:39:04;;;;;;;5.83;5.20;;;24.00;99.90;;;;;;4932489;29;20424;-75
2022/07/29 12:41:30;;;;;;;8.57;5.90;;;23.80;99.90;;;;;;4931863;29;20571;-74
2022/07/29 12:43:56;;;;;;;6.70;5.30;;;23.80;99.90;;;;;;4932841;29;20181;-74
2022/07/29 12:46:22;;;;;;;6.30;5.70;;;23.70;99.90;;;;;;4932731;29;20417;-75
2022/07/29 12:48:58;;;;;;;6.23;5.67;;;23.60;99.90;;;;;;4940718;29;20173;-75
2022/07/29 12:51:37;;;;;;;6.00;5.40;;;23.40;99.90;;;;;;4937008;29;20197;-74
2022/07/29 12:54:03;;;;;;;8.63;5.57;;;23.30;99.90;;;;;;4882626;28;20464;-77
2022/07/29 12:56:29;;;;;;;8.03;5.87;;;23.20;99.90;;;;;;4930563;29;20516;-76
2022/07/29 12:58:55;;;;;;;6.57;5.97;;;23.10;99.90;;;;;;4931911;29;20537;-76
2022/07/29 13:01:20;;;;;;;9.73;6.20;;;23.10;99.90;;;;;;4930420;29;20233;-76
2022/07/29 13:03:52;;;;;;;5.47;5.00;;;23.10;99.90;;;;;;4930910;29;20213;-75
2022/07/29 13:06:33;;;;;;;6.60;5.63;;;23.10;99.90;;;;;;4932314;29;20312;-75
2022/07/29 13:09:10;;;;;;;8.57;5.70;;;23.10;99.90;;;;;;4933514;29;20452;-75
2022/07/29 13:11:39;;;;;;;6.60;5.47;;;23.10;99.90;;;;;;4934341;29;20459;-75
2022/07/29 13:14:06;;;;;;;4.57;4.17;;;23.10;99.90;;;;;;4935377;29;20460;-75
2022/07/29 13:16:31;;;;;;;5.77;5.27;;;23.00;99.90;;;;;;4937786;29;20463;-75
2022/07/29 13:19:09;;;;;;;6.70;4.97;;;23.00;99.90;;;;;;4934774;29;20876;-75
2022/07/29 13:21:34;;;;;;;8.10;5.20;;;22.90;99.90;;;;;;4933732;29;20239;-76
2022/07/29 13:24:00;;;;;;;8.37;5.33;;;23.00;99.90;;;;;;4934925;29;20938;-75
2022/07/29 13:26:25;;;;;;;5.77;4.43;;;23.00;99.90;;;;;;4933988;29;20221;-74
2022/07/29 13:28:51;;;;;;;4.87;4.47;;;22.90;99.90;;;;;;4934767;29;20208;-75
2022/07/29 13:31:16;;;;;;;6.53;5.40;;;22.80;99.90;;;;;;4933380;29;20240;-76
2022/07/29 13:33:42;;;;;;;5.27;4.77;;;22.60;99.90;;;;;;4932329;29;20632;-76
2022/07/29 13:36:07;;;;;;;13.00;5.40;;;22.50;99.90;;;;;;4934254;29;20717;-77
2022/07/29 13:38:33;;;;;;;7.10;5.67;;;22.40;99.90;;;;;;4934089;29;20217;-75
2022/07/29 13:41:00;;;;;;;6.33;5.23;;;22.40;99.90;;;;;;4933536;29;20374;-76
2022/07/29 13:43:25;;;;;;;7.37;5.70;;;22.50;99.90;;;;;;4932580;29;20447;-74
2022/07/29 13:45:51;;;;;;;5.40;5.00;;;22.50;99.90;;;;;;4934346;29;20876;-75
2022/07/29 13:48:17;;;;;;;5.63;4.93;;;22.60;99.90;;;;;;4935260;29;20186;-76
2022/07/29 13:50:42;;;;;;;6.67;6.10;;;22.70;99.90;;;;;;4934540;29;20423;-75
2022/07/29 13:53:08;;;;;;;6.10;5.60;;;22.80;99.90;;;;;;4934857;29;20581;-75
2022/07/29 13:55:34;;;;;;;10.00;5.50;;;23.00;99.90;;;;;;4934827;29;20174;-76
2022/07/29 13:57:59;;;;;;;8.07;5.70;;;23.10;99.90;;;;;;4935126;29;20547;-77
2022/07/29 14:00:25;;;;;;;10.60;5.57;;;23.10;99.90;;;;;;4933806;29;20182;-75
2022/07/29 14:02:51;;;;;;;9.10;5.43;;;23.30;99.90;;;;;;4934390;29;20205;-76
2022/07/29 14:05:17;;;;;;;7.03;5.57;;;23.50;99.90;;;;;;4934609;29;20413;-76
2022/07/29 14:07:43;;;;;;;5.10;4.70;;;23.70;99.90;;;;;;4934617;29;20418;-75
2022/07/29 14:10:09;;;;;;;9.97;4.83;;;23.90;99.90;;;;;;4934716;29;20192;-75
2022/07/29 14:12:34;;;;;;;5.10;4.60;;;24.10;99.90;;;;;;4933910;29;20205;-76
2022/07/29 14:15:00;;;;;;;7.20;5.20;;;24.30;99.90;;;;;;4934707;29;20717;-77
2022/07/29 14:17:26;;;;;;;5.17;4.33;;;24.40;99.90;;;;;;4934275;29;20205;-76
2022/07/29 14:19:51;;;;;;;6.53;4.63;;;24.50;99.90;;;;;;4934234;29;20244;-76
2022/07/29 14:22:18;;;;;;;5.37;4.80;;;24.60;99.90;;;;;;4933505;29;20228;-76
2022/07/29 14:24:44;;;;;;;7.53;4.87;;;24.70;99.90;;;;;;4934730;29;20196;-75
2022/07/29 14:27:09;;;;;;;6.20;5.00;;;24.80;99.90;;;;;;4934509;29;20566;-76